createdAt,value
2022-11-05T00:02:33.335Z,3.43
2022-11-05T00:05:20.477Z,3.77
2022-11-05T00:08:07.523Z,3.30
2022-11-05T00:10:36.824Z,3.80
2022-11-05T00:13:22.777Z,3.20
2022-11-05T00:16:08.863Z,3.63
2022-11-05T00:18:37.251Z,3.47
2022-11-05T00:21:27.370Z,3.57
2022-11-05T00:24:13.263Z,3.60
2022-11-05T00:26:41.795Z,3.90
2022-11-05T00:29:10.159Z,3.43
2022-11-05T00:31:38.462Z,3.57
2022-11-05T00:34:07.055Z,3.83
2022-11-05T00:36:36.808Z,3.77
2022-11-05T00:39:07.641Z,3.73
2022-11-05T00:41:36.001Z,3.77
2022-11-05T00:44:22.147Z,4.00
2022-11-05T00:47:10.542Z,4.53
2022-11-05T00:49:38.403Z,3.80
2022-11-05T00:52:21.946Z,4.17
2022-11-05T00:54:50.501Z,4.10
2022-11-05T00:57:18.824Z,4.20
2022-11-05T00:59:47.322Z,4.13
2022-11-05T01:02:15.915Z,3.70
2022-11-05T01:04:44.415Z,3.83
2022-11-05T01:07:15.729Z,3.90
2022-11-05T01:09:44.132Z,4.10
2022-11-05T01:12:12.576Z,4.03
2022-11-05T01:14:41.011Z,4.30
2022-11-05T01:17:09.814Z,4.73
2022-11-05T01:19:39.418Z,4.40
2022-11-05T01:22:08.114Z,5.30
2022-11-05T01:24:38.002Z,5.03
2022-11-05T01:27:06.516Z,3.73
2022-11-05T01:29:35.491Z,4.47
2022-11-05T01:32:03.960Z,4.87
2022-11-05T01:34:32.326Z,4.80
2022-11-05T01:37:00.913Z,4.23
2022-11-05T01:39:29.318Z,4.77
2022-11-05T01:42:00.172Z,5.13
2022-11-05T01:44:48.189Z,3.00
2022-11-05T01:47:18.283Z,2.83
2022-11-05T01:49:46.686Z,2.33
2022-11-05T01:52:15.152Z,2.20
2022-11-05T01:54:43.701Z,2.53
2022-11-05T01:57:14.059Z,2.10
2022-11-05T01:59:43.227Z,2.10
2022-11-05T02:02:11.939Z,2.03
2022-11-05T02:04:40.801Z,2.10
2022-11-05T02:07:09.617Z,2.30
2022-11-05T02:09:38.999Z,1.80
2022-11-05T02:12:07.854Z,2.40
2022-11-05T02:14:38.143Z,1.67
2022-11-05T02:17:07.111Z,2.10
2022-11-05T02:19:48.819Z,1.90
2022-11-05T02:22:30.485Z,2.20
2022-11-05T02:25:03.370Z,2.00
2022-11-05T02:27:39.759Z,1.70
2022-11-05T02:30:11.304Z,1.80
2022-11-05T02:32:42.956Z,1.80
2022-11-05T02:35:14.289Z,1.70
2022-11-05T02:37:43.114Z,2.53
2022-11-05T02:40:13.643Z,2.00
2022-11-05T02:42:44.636Z,2.00
2022-11-05T02:45:14.919Z,2.00
2022-11-05T02:47:46.196Z,2.60
2022-11-05T02:50:17.182Z,2.50
2022-11-05T02:52:47.034Z,2.50
2022-11-05T02:55:17.296Z,2.43
2022-11-05T02:57:46.112Z,2.80
2022-11-05T03:00:33.180Z,2.83
2022-11-05T03:03:03.250Z,2.57
2022-11-05T03:05:34.649Z,2.60
2022-11-05T03:08:03.785Z,2.70
2022-11-05T03:10:35.487Z,2.77
2022-11-05T03:13:05.872Z,2.33
2022-11-05T03:15:38.170Z,2.53
2022-11-05T03:18:09.214Z,2.53
2022-11-05T03:20:38.023Z,2.57
2022-11-05T03:23:07.921Z,2.47
2022-11-05T03:25:37.939Z,2.67
2022-11-05T03:28:07.361Z,2.70
2022-11-05T03:30:35.847Z,2.60
2022-11-05T03:33:05.523Z,2.50
2022-11-05T03:35:36.319Z,2.23
2022-11-05T03:38:05.826Z,2.57
2022-11-05T03:40:34.385Z,2.13
2022-11-05T03:43:02.756Z,2.60
2022-11-05T03:45:32.628Z,2.40
2022-11-05T03:48:01.906Z,2.03
2022-11-05T03:50:35.855Z,2.00
2022-11-05T03:53:11.569Z,2.30
2022-11-05T03:55:42.954Z,2.30
2022-11-05T03:58:11.321Z,2.00
2022-11-05T04:00:39.693Z,2.20
2022-11-05T04:03:08.517Z,2.60
2022-11-05T04:05:37.122Z,1.97
2022-11-05T04:08:23.268Z,2.07
2022-11-05T04:11:10.633Z,2.00
2022-11-05T04:13:38.956Z,2.00
2022-11-05T04:16:24.962Z,1.80
2022-11-05T04:18:53.633Z,1.70
2022-11-05T04:21:54.039Z,2.00
2022-11-05T04:24:22.354Z,1.67
2022-11-05T04:26:52.072Z,2.10
2022-11-05T04:29:46.701Z,1.97
2022-11-05T04:32:15.203Z,2.10
2022-11-05T04:34:43.640Z,1.90
2022-11-05T04:37:12.013Z,2.40
2022-11-05T04:39:40.435Z,1.90
2022-11-05T04:42:10.181Z,2.20
2022-11-05T04:44:38.632Z,2.17
2022-11-05T04:47:06.963Z,2.10
2022-11-05T04:49:35.385Z,2.87
2022-11-05T04:52:03.975Z,2.80
2022-11-05T04:54:32.349Z,2.23
2022-11-05T04:57:00.750Z,2.50
2022-11-05T04:59:30.448Z,2.30
2022-11-05T05:01:59.013Z,2.43
2022-11-05T05:04:27.653Z,2.70
2022-11-05T05:06:56.173Z,2.60
2022-11-05T05:09:24.498Z,2.93
2022-11-05T05:11:53.022Z,2.60
2022-11-05T05:14:21.317Z,2.70
2022-11-05T05:16:50.982Z,2.40
2022-11-05T05:19:19.322Z,3.10
2022-11-05T05:21:47.048Z,2.90
2022-11-05T05:24:15.985Z,3.30
2022-11-05T05:26:45.042Z,3.40
2022-11-05T05:29:13.480Z,4.03
2022-11-05T05:31:41.953Z,3.67
2022-11-05T05:34:12.486Z,4.13
2022-11-05T05:36:40.789Z,4.33
2022-11-05T05:39:11.091Z,4.03
2022-11-05T05:41:39.695Z,5.03
2022-11-05T05:44:08.316Z,4.60
2022-11-05T05:46:36.629Z,5.37
2022-11-05T05:49:11.238Z,4.63
2022-11-05T05:51:42.092Z,4.83
2022-11-05T05:54:10.452Z,5.13
2022-11-05T05:56:38.891Z,5.07
2022-11-05T05:59:07.664Z,5.03
2022-11-05T06:01:36.061Z,5.80
2022-11-05T06:04:04.623Z,6.00
2022-11-05T06:06:32.963Z,5.93
2022-11-05T06:09:02.763Z,5.87
2022-11-05T06:11:31.303Z,6.10
2022-11-05T06:13:59.667Z,6.40
2022-11-05T06:16:28.573Z,6.17
2022-11-05T06:18:56.845Z,6.47
2022-11-05T06:21:25.176Z,6.83
2022-11-05T06:23:53.482Z,6.87
2022-11-05T06:26:23.307Z,6.53
2022-11-05T06:28:51.786Z,7.47
2022-11-05T06:31:20.171Z,6.90
2022-11-05T06:33:48.642Z,7.33
2022-11-05T06:36:17.795Z,6.83
2022-11-05T06:38:46.239Z,6.73
2022-11-05T06:41:14.594Z,7.63
2022-11-05T06:43:44.302Z,7.67
2022-11-05T06:46:13.096Z,7.90
2022-11-05T06:48:41.650Z,7.60
2022-11-05T06:51:10.183Z,7.10
2022-11-05T06:53:38.627Z,7.80
2022-11-05T06:56:07.940Z,7.90
2022-11-05T06:58:36.688Z,8.00
2022-11-05T07:01:08.096Z,8.47
2022-11-05T07:03:36.636Z,9.30
2022-11-05T07:06:05.038Z,9.13
2022-11-05T07:08:33.550Z,9.53
2022-11-05T07:11:02.119Z,8.67
2022-11-05T07:13:31.034Z,9.47
2022-11-05T07:15:59.475Z,7.57
2022-11-05T07:18:29.271Z,8.40
2022-11-05T07:20:57.674Z,8.77
2022-11-05T07:23:26.233Z,8.87
2022-11-05T07:25:54.647Z,8.60
2022-11-05T07:28:22.989Z,9.00
2022-11-05T07:30:51.702Z,9.40
2022-11-05T07:33:20.069Z,8.57
2022-11-05T07:35:49.893Z,8.63
2022-11-05T07:38:19.097Z,8.67
2022-11-05T07:40:47.680Z,7.87
2022-11-05T07:43:16.115Z,8.17
2022-11-05T07:45:44.736Z,7.73
2022-11-05T07:48:13.114Z,7.50
2022-11-05T07:50:41.501Z,7.03
2022-11-05T07:53:12.497Z,7.17
2022-11-05T07:55:42.007Z,7.90
2022-11-05T07:58:10.917Z,7.50
2022-11-05T08:00:39.427Z,7.73
2022-11-05T08:03:08.961Z,7.13
2022-11-05T08:05:38.185Z,7.13
2022-11-05T08:08:06.990Z,6.93
2022-11-05T08:10:37.078Z,6.87
2022-11-05T08:13:05.687Z,6.73
2022-11-05T08:15:34.016Z,6.90
2022-11-05T08:18:04.970Z,6.43
2022-11-05T08:20:33.352Z,5.63
2022-11-05T08:23:01.660Z,6.30
2022-11-05T08:25:30.442Z,6.00
2022-11-05T08:28:03.530Z,6.30
2022-11-05T08:30:32.374Z,5.87
2022-11-05T08:33:01.581Z,5.83
2022-11-05T08:35:31.460Z,6.00
2022-11-05T08:38:00.634Z,5.50
2022-11-05T08:40:29.079Z,6.10
2022-11-05T08:42:58.449Z,5.20
2022-11-05T08:45:28.414Z,5.07
2022-11-05T08:48:00.472Z,4.70
2022-11-05T08:50:29.003Z,4.23
2022-11-05T08:52:57.886Z,4.60
2022-11-05T08:55:26.971Z,4.33
2022-11-05T08:57:58.588Z,5.27
2022-11-05T09:00:28.640Z,4.33
2022-11-05T09:02:57.108Z,4.47
2022-11-05T09:05:25.556Z,4.50
2022-11-05T09:07:59.430Z,4.80
2022-11-05T09:10:29.457Z,4.77
2022-11-05T09:12:57.999Z,4.77
2022-11-05T09:15:28.709Z,4.60
2022-11-05T09:17:57.140Z,4.07
2022-11-05T09:20:26.468Z,4.87
2022-11-05T09:22:54.816Z,4.33
2022-11-05T09:25:23.226Z,4.80
2022-11-05T09:27:51.731Z,3.90
2022-11-05T09:30:20.238Z,4.10
2022-11-05T09:32:50.037Z,3.90
2022-11-05T09:35:18.641Z,4.10
2022-11-05T09:37:47.041Z,3.70
2022-11-05T09:40:16.755Z,4.10
2022-11-05T09:42:46.744Z,3.80
2022-11-05T09:45:16.933Z,3.77
2022-11-05T09:47:46.109Z,3.43
2022-11-05T09:50:16.523Z,3.97
2022-11-05T09:52:44.901Z,3.57
2022-11-05T09:55:18.571Z,3.73
2022-11-05T09:57:47.368Z,3.83
2022-11-05T10:00:17.405Z,4.17
2022-11-05T10:02:48.119Z,4.10
2022-11-05T10:05:18.268Z,3.60
2022-11-05T10:07:47.417Z,3.83
2022-11-05T10:10:20.374Z,3.90
2022-11-05T10:12:49.087Z,3.77
2022-11-05T10:15:17.951Z,4.00
2022-11-05T10:17:46.423Z,3.83
2022-11-05T10:20:16.702Z,4.10
2022-11-05T10:22:49.467Z,4.07
2022-11-05T10:25:19.354Z,3.90
2022-11-05T10:27:49.849Z,3.20
2022-11-05T10:30:18.456Z,3.80
2022-11-05T10:32:47.312Z,3.70
2022-11-05T10:35:18.417Z,4.27
2022-11-05T10:37:48.551Z,3.37
2022-11-05T10:40:19.250Z,3.47
2022-11-05T10:42:49.695Z,3.50
2022-11-05T10:45:20.530Z,3.03
2022-11-05T10:47:59.259Z,2.90
2022-11-05T10:50:28.228Z,2.50
2022-11-05T10:53:01.601Z,2.57
2022-11-05T10:55:30.434Z,2.40
2022-11-05T10:58:08.845Z,2.50
2022-11-05T11:00:37.208Z,2.10
2022-11-05T11:03:06.199Z,2.40
2022-11-05T11:05:35.515Z,2.60
2022-11-05T11:08:06.594Z,2.50
2022-11-05T11:10:36.667Z,2.27
2022-11-05T11:13:05.104Z,2.20
2022-11-05T11:15:35.169Z,2.07
2022-11-05T11:18:19.538Z,2.03
2022-11-05T11:20:49.402Z,2.70
2022-11-05T11:23:19.273Z,2.27
2022-11-05T11:25:48.924Z,2.57
2022-11-05T11:28:19.489Z,2.73
2022-11-05T11:30:56.268Z,2.53
2022-11-05T11:33:25.615Z,2.43
2022-11-05T11:35:54.171Z,2.30
2022-11-05T11:38:25.083Z,2.43
2022-11-05T11:40:53.870Z,2.60
2022-11-05T11:43:25.568Z,2.73
2022-11-05T11:45:54.837Z,2.80
2022-11-05T11:48:24.444Z,2.80
2022-11-05T11:50:52.918Z,2.70
2022-11-05T11:53:32.969Z,2.80
2022-11-05T11:56:02.798Z,2.90
2022-11-05T11:58:38.347Z,3.27
2022-11-05T12:01:09.063Z,2.83
2022-11-05T12:03:37.586Z,3.17
2022-11-05T12:06:07.049Z,3.60
2022-11-05T12:08:45.271Z,3.73
2022-11-05T12:11:15.200Z,3.20
2022-11-05T12:13:58.536Z,3.43
2022-11-05T12:16:45.850Z,3.13
2022-11-05T12:19:18.527Z,3.60
2022-11-05T12:21:52.974Z,4.00
2022-11-05T12:24:36.593Z,3.30
2022-11-05T12:27:07.643Z,3.27
2022-11-05T12:29:42.730Z,3.07
2022-11-05T12:32:21.149Z,3.40
2022-11-05T12:34:52.821Z,3.90
2022-11-05T12:37:24.293Z,4.47
2022-11-05T12:39:58.644Z,3.30
2022-11-05T12:42:31.073Z,3.70
2022-11-05T12:45:02.821Z,3.80
2022-11-05T12:47:36.025Z,3.40
2022-11-05T12:50:06.711Z,3.20
2022-11-05T12:52:43.377Z,3.60
2022-11-05T12:55:13.747Z,3.30
2022-11-05T12:57:42.432Z,3.10
2022-11-05T13:00:18.595Z,3.13
2022-11-05T13:02:49.361Z,3.57
2022-11-05T13:05:18.454Z,2.97
2022-11-05T13:07:48.584Z,2.77
2022-11-05T13:10:20.736Z,2.87
2022-11-05T13:12:50.483Z,2.90
2022-11-05T13:15:22.027Z,2.80
2022-11-05T13:17:51.426Z,2.90
2022-11-05T13:20:21.476Z,3.03
2022-11-05T13:22:50.384Z,2.70
2022-11-05T13:25:21.144Z,2.80
2022-11-05T13:27:54.992Z,2.60
2022-11-05T13:30:24.428Z,2.83
2022-11-05T13:32:55.408Z,2.93
2022-11-05T13:35:24.599Z,3.77
2022-11-05T13:38:11.769Z,3.03
2022-11-05T13:40:44.578Z,3.03
2022-11-05T13:43:19.450Z,3.50
2022-11-05T13:45:55.184Z,3.43
2022-11-05T13:48:41.586Z,3.40
2022-11-05T13:51:26.069Z,3.77
2022-11-05T13:54:14.562Z,4.07
2022-11-05T13:56:49.811Z,3.80
2022-11-05T13:59:30.952Z,4.40
2022-11-05T14:02:00.031Z,4.50
2022-11-05T14:04:30.500Z,4.40
2022-11-05T14:07:06.743Z,3.87
2022-11-05T14:09:35.484Z,4.27
2022-11-05T14:12:05.739Z,4.80
2022-11-05T14:14:36.153Z,4.00
2022-11-05T14:17:15.855Z,4.67
2022-11-05T14:20:07.881Z,4.30
2022-11-05T14:22:38.733Z,4.23
2022-11-05T14:25:25.366Z,4.20
2022-11-05T14:27:55.560Z,4.30
2022-11-05T14:30:42.713Z,4.47
2022-11-05T14:33:18.545Z,4.20
2022-11-05T14:35:46.922Z,4.60
2022-11-05T14:38:20.469Z,4.60
2022-11-05T14:40:48.855Z,4.07
2022-11-05T14:43:20.777Z,4.37
2022-11-05T14:45:55.982Z,4.73
2022-11-05T14:48:29.245Z,3.90
2022-11-05T14:50:57.687Z,4.17
2022-11-05T14:53:27.248Z,4.47
2022-11-05T14:55:59.549Z,4.57
2022-11-05T14:58:33.042Z,4.27
2022-11-05T15:01:01.700Z,4.10
2022-11-05T15:03:31.316Z,4.13
2022-11-05T15:06:05.544Z,4.90
2022-11-05T15:08:36.961Z,4.80
2022-11-05T15:11:13.738Z,4.63
2022-11-05T15:13:44.866Z,5.00
2022-11-05T15:16:13.288Z,4.87
2022-11-05T15:18:42.760Z,4.80
2022-11-05T15:21:12.511Z,5.50
2022-11-05T15:23:41.297Z,4.70
2022-11-05T15:26:20.984Z,4.90
2022-11-05T15:28:51.542Z,4.87
2022-11-05T15:31:24.937Z,5.43
2022-11-05T15:33:53.462Z,5.23
2022-11-05T15:36:22.563Z,5.50
2022-11-05T15:39:15.213Z,5.37
2022-11-05T15:41:39.377Z,5.70
2022-11-05T15:44:23.664Z,5.77
2022-11-05T15:47:05.931Z,6.00
2022-11-05T15:49:34.247Z,6.20
2022-11-05T15:52:02.828Z,6.77
2022-11-05T15:54:31.764Z,6.30
2022-11-05T15:57:01.747Z,7.00
2022-11-05T15:59:30.895Z,6.43
2022-11-05T16:02:03.696Z,6.70
2022-11-05T16:04:32.747Z,6.47
2022-11-05T16:07:01.918Z,6.90
2022-11-05T16:09:30.874Z,6.80
2022-11-05T16:12:15.126Z,7.10
2022-11-05T16:14:43.465Z,7.10
2022-11-05T16:17:16.346Z,6.27
2022-11-05T16:19:44.988Z,7.03
2022-11-05T16:22:13.885Z,6.80
2022-11-05T16:24:42.364Z,7.07
2022-11-05T16:27:19.153Z,6.43
2022-11-05T16:29:52.570Z,7.00
2022-11-05T16:32:28.625Z,7.77
2022-11-05T16:34:58.929Z,6.80
2022-11-05T16:37:27.795Z,7.33
2022-11-05T16:39:56.352Z,6.40
2022-11-05T16:42:37.964Z,6.70
2022-11-05T16:45:06.788Z,6.90
2022-11-05T16:47:36.589Z,7.00
2022-11-05T16:50:11.069Z,7.13
2022-11-05T16:52:40.560Z,6.73
2022-11-05T16:55:09.343Z,7.13
2022-11-05T16:57:37.703Z,7.53
2022-11-05T17:00:06.458Z,6.17
2022-11-05T17:02:37.066Z,6.37
2022-11-05T17:05:05.597Z,7.40
2022-11-05T17:07:40.115Z,6.83
2022-11-05T17:10:10.054Z,7.23
2022-11-05T17:12:38.601Z,7.10
2022-11-05T17:15:13.132Z,6.77
2022-11-05T17:17:42.942Z,7.03
2022-11-05T17:20:12.364Z,6.37
2022-11-05T17:22:40.835Z,6.43
2022-11-05T17:25:09.580Z,6.73
2022-11-05T17:27:40.618Z,6.60
2022-11-05T17:30:10.502Z,7.53
2022-11-05T17:32:39.940Z,7.10
2022-11-05T17:35:12.037Z,7.87
2022-11-05T17:37:40.840Z,6.50
2022-11-05T17:40:10.082Z,6.70
2022-11-05T17:42:38.398Z,6.90
2022-11-05T17:45:07.363Z,6.80
2022-11-05T17:47:35.696Z,6.70
2022-11-05T17:50:04.224Z,6.90
2022-11-05T17:52:34.239Z,6.83
2022-11-05T17:55:02.682Z,6.57
2022-11-05T17:57:31.062Z,6.40
2022-11-05T17:59:59.391Z,15.97
2022-11-05T18:02:29.457Z,8.77
2022-11-05T18:04:57.905Z,7.30
2022-11-05T18:07:26.401Z,6.67
2022-11-05T18:09:56.360Z,5.90
2022-11-05T18:12:24.915Z,6.77
2022-11-05T18:14:53.532Z,5.80
2022-11-05T18:17:21.855Z,6.80
2022-11-05T18:19:50.264Z,6.33
2022-11-05T18:22:19.575Z,6.67
2022-11-05T18:24:49.142Z,5.83
2022-11-05T18:27:18.881Z,5.57
2022-11-05T18:29:50.295Z,5.70
2022-11-05T18:32:18.935Z,5.80
2022-11-05T18:34:47.280Z,5.57
2022-11-05T18:37:15.733Z,5.87
2022-11-05T18:39:44.034Z,5.53
2022-11-05T18:42:12.528Z,5.63
2022-11-05T18:44:42.320Z,5.50
2022-11-05T18:47:10.618Z,5.73
2022-11-05T18:49:39.062Z,5.70
2022-11-05T18:52:07.373Z,4.53
2022-11-05T18:54:35.683Z,5.00
2022-11-05T18:57:04.403Z,4.27
2022-11-05T18:59:38.779Z,4.90
2022-11-05T19:02:09.177Z,4.70
2022-11-05T19:04:37.773Z,4.73
2022-11-05T19:07:06.434Z,4.33
2022-11-05T19:09:35.069Z,4.30
2022-11-05T19:12:03.930Z,4.57
2022-11-05T19:14:32.426Z,4.40
2022-11-05T19:17:02.001Z,4.57
2022-11-05T19:19:32.400Z,4.70
2022-11-05T19:22:01.050Z,4.20
2022-11-05T19:24:30.629Z,4.20
2022-11-05T19:26:59.668Z,4.13
2022-11-05T19:29:34.282Z,4.70
2022-11-05T19:32:03.848Z,4.43
2022-11-05T19:34:34.172Z,4.23
2022-11-05T19:37:02.787Z,4.47
2022-11-05T19:39:31.428Z,3.97
2022-11-05T19:42:04.028Z,4.77
2022-11-05T19:44:33.262Z,4.70
2022-11-05T19:47:01.908Z,4.43
2022-11-05T19:49:30.577Z,4.00
2022-11-05T19:52:01.335Z,4.27
2022-11-05T19:54:30.927Z,3.93
2022-11-05T19:56:59.733Z,4.33
2022-11-05T19:59:31.093Z,4.53
2022-11-05T20:02:00.901Z,4.63
2022-11-05T20:04:30.250Z,4.30
2022-11-05T20:06:59.483Z,4.80
2022-11-05T20:09:29.726Z,4.27
2022-11-05T20:11:59.583Z,4.47
2022-11-05T20:14:37.390Z,4.70
2022-11-05T20:17:06.080Z,3.60
2022-11-05T20:19:35.363Z,4.30
2022-11-05T20:22:03.821Z,4.90
2022-11-05T20:24:34.091Z,3.87
2022-11-05T20:27:04.136Z,4.83
2022-11-05T20:29:35.813Z,4.27
2022-11-05T20:32:05.490Z,4.37
2022-11-05T20:34:34.118Z,4.33
2022-11-05T20:37:02.771Z,4.40
2022-11-05T20:39:31.055Z,4.60
2022-11-05T20:42:01.964Z,4.53
2022-11-05T20:44:30.351Z,4.37
2022-11-05T20:46:59.641Z,4.27
2022-11-05T20:49:30.810Z,4.47
2022-11-05T20:51:59.144Z,4.40
2022-11-05T20:54:27.647Z,4.77
2022-11-05T20:56:56.117Z,4.80
2022-11-05T20:59:25.942Z,4.13
2022-11-05T21:01:54.571Z,4.40
2022-11-05T21:04:23.287Z,4.83
2022-11-05T21:06:52.921Z,4.37
2022-11-05T21:09:21.630Z,4.60
2022-11-05T21:12:07.812Z,4.33
2022-11-05T21:14:37.551Z,4.80
2022-11-05T21:17:06.072Z,5.10
2022-11-05T21:19:34.813Z,4.63
2022-11-05T21:22:03.202Z,4.30
2022-11-05T21:24:31.588Z,4.47
2022-11-05T21:27:01.134Z,5.30
2022-11-05T21:29:29.645Z,4.37
2022-11-05T21:31:59.721Z,4.53
2022-11-05T21:34:28.261Z,4.63
2022-11-05T21:36:56.931Z,4.40
2022-11-05T21:39:25.608Z,4.07
2022-11-05T21:41:53.928Z,5.20
2022-11-05T21:44:22.250Z,5.00
2022-11-05T21:46:52.454Z,5.50
2022-11-05T21:49:22.176Z,5.03
2022-11-05T21:52:08.339Z,5.47
2022-11-05T21:54:54.198Z,4.30
2022-11-05T21:57:40.349Z,4.80
2022-11-05T22:00:09.663Z,5.27
2022-11-05T22:02:38.396Z,4.87
2022-11-05T22:05:08.869Z,5.07
2022-11-05T22:07:37.846Z,4.70
2022-11-05T22:10:07.156Z,4.67
2022-11-05T22:12:37.218Z,4.60
2022-11-05T22:15:05.897Z,5.03
2022-11-05T22:17:34.313Z,4.63
2022-11-05T22:20:03.091Z,4.47
2022-11-05T22:22:33.861Z,4.57
2022-11-05T22:25:02.313Z,5.23
2022-11-05T22:27:30.830Z,4.40
2022-11-05T22:29:59.365Z,5.27
2022-11-05T22:32:27.741Z,4.50
2022-11-05T22:34:56.799Z,5.00
2022-11-05T22:37:25.428Z,4.40
2022-11-05T22:39:55.229Z,4.87
2022-11-05T22:42:23.635Z,5.23
2022-11-05T22:44:52.498Z,5.23
2022-11-05T22:47:21.819Z,4.97
2022-11-05T22:49:51.725Z,5.00
2022-11-05T22:52:20.258Z,5.03
2022-11-05T22:54:50.288Z,5.40
2022-11-05T22:57:20.306Z,5.47
2022-11-05T22:59:48.622Z,5.23
2022-11-05T23:02:17.901Z,5.47
2022-11-05T23:04:46.295Z,5.70
2022-11-05T23:07:32.888Z,5.50
2022-11-05T23:10:19.019Z,5.43
2022-11-05T23:12:49.148Z,5.93
2022-11-05T23:15:31.342Z,5.40
2022-11-05T23:18:16.988Z,5.93
2022-11-05T23:21:03.513Z,5.83
2022-11-05T23:23:49.796Z,5.67
2022-11-05T23:26:35.668Z,6.13
2022-11-05T23:29:05.399Z,5.33
2022-11-05T23:31:51.193Z,6.13
2022-11-05T23:34:19.604Z,5.77
2022-11-05T23:37:05.629Z,5.43
2022-11-05T23:39:39.635Z,5.73
2022-11-05T23:42:28.877Z,5.97
2022-11-05T23:45:21.477Z,6.70
2022-11-05T23:48:07.487Z,6.43
2022-11-05T23:50:39.788Z,5.70
2022-11-05T23:53:08.716Z,6.00
2022-11-05T23:55:37.160Z,6.30
2022-11-05T23:58:05.596Z,6.77
